Time;durP1;ratioP1;P1;durP2;ratioP2;P2;SDS_P1;SDS_P2;PMS_P1;PMS_P2;Temp;Humidity;BMP_temperature;BMP_pressure;BME280_temperature;BME280_humidity;BME280_pressure;Samples;Min_cycle;Max_cycle;Signal;HPM_P1;HPM_P2
2022/11/15 00:00:51;;;;;;;19.67;16.95;;;7.30;99.90;;;;;;4862876;29;20106;-82
2022/11/15 00:03:18;;;;;;;23.63;17.70;;;7.30;99.90;;;;;;4860907;29;20049;-82
2022/11/15 00:05:44;;;;;;;20.17;17.00;;;7.30;99.90;;;;;;4875039;29;20082;-83
2022/11/15 00:08:10;;;;;;;20.73;16.80;;;7.30;99.90;;;;;;4861961;29;20061;-83
2022/11/15 00:10:36;;;;;;;19.08;16.40;;;7.30;99.90;;;;;;4872093;29;20037;-83
2022/11/15 00:13:10;;;;;;;20.70;17.45;;;7.40;99.90;;;;;;4872085;29;20041;-82
2022/11/15 00:15:40;;;;;;;23.33;16.92;;;7.50;99.90;;;;;;4859725;29;20040;-83
2022/11/15 00:18:06;;;;;;;20.15;16.67;;;7.50;99.90;;;;;;4874353;29;20075;-83
2022/11/15 00:20:35;;;;;;;20.23;16.83;;;7.50;99.90;;;;;;4889403;29;20484;-83
2022/11/15 00:23:04;;;;;;;21.88;16.73;;;7.50;99.90;;;;;;4861699;29;20048;-83
2022/11/15 00:25:35;;;;;;;18.38;15.77;;;7.60;99.90;;;;;;4856607;29;20089;-83
2022/11/15 00:28:01;;;;;;;16.98;15.15;;;7.70;99.90;;;;;;4887407;29;20041;-84
2022/11/15 00:30:27;;;;;;;21.27;17.48;;;7.70;99.90;;;;;;4857296;29;20041;-83
2022/11/15 00:32:53;;;;;;;19.42;15.98;;;7.70;99.90;;;;;;4856345;29;20033;-83
2022/11/15 00:35:19;;;;;;;17.60;15.50;;;7.70;99.90;;;;;;4883419;29;20055;-83
2022/11/15 00:37:47;;;;;;;19.05;16.80;;;7.70;99.90;;;;;;4870569;29;20132;-83
2022/11/15 00:40:19;;;;;;;19.55;16.83;;;7.80;99.90;;;;;;4870452;29;20056;-84
2022/11/15 00:42:45;;;;;;;18.33;16.30;;;7.80;99.90;;;;;;4870138;29;20049;-83
2022/11/15 00:45:11;;;;;;;19.20;16.90;;;7.80;99.90;;;;;;4886107;29;20049;-83
2022/11/15 00:47:36;;;;;;;20.27;17.52;;;7.80;99.90;;;;;;4853284;29;20052;-83
2022/11/15 00:50:03;;;;;;;21.13;18.25;;;8.40;99.90;;;;;;4868154;29;20045;-83
2022/11/15 00:52:28;;;;;;;20.15;17.98;;;7.80;99.90;;;;;;4872321;29;20040;-83
2022/11/15 00:54:54;;;;;;;23.90;20.08;;;7.80;99.90;;;;;;4855365;29;20052;-83
2022/11/15 00:57:19;;;;;;;26.35;18.90;;;7.80;99.90;;;;;;4868197;29;20053;-84
2022/11/15 00:59:45;;;;;;;20.73;18.42;;;7.80;99.90;;;;;;4864888;29;20144;-84
2022/11/15 01:02:10;;;;;;;24.23;19.27;;;7.80;99.90;;;;;;4884530;29;20215;-83
2022/11/15 01:04:36;;;;;;;21.40;17.77;;;7.80;99.90;;;;;;4855339;29;20571;-83
2022/11/15 01:07:02;;;;;;;21.27;17.15;;;7.80;99.90;;;;;;4869520;29;20036;-84
2022/11/15 01:09:29;;;;;;;22.48;17.23;;;7.80;99.90;;;;;;4851587;29;20075;-83
2022/11/15 01:11:54;;;;;;;21.95;18.27;;;7.80;99.90;;;;;;4855325;29;20037;-84
2022/11/15 01:14:20;;;;;;;21.45;18.23;;;7.80;99.90;;;;;;4850515;29;20041;-83
2022/11/15 01:16:45;;;;;;;19.75;17.60;;;7.70;99.90;;;;;;4855936;29;20041;-84
2022/11/15 01:19:11;;;;;;;21.40;18.35;;;7.70;99.90;;;;;;4882913;29;20033;-84
2022/11/15 01:21:37;;;;;;;21.02;17.55;;;7.70;99.90;;;;;;4867186;29;20053;-83
2022/11/15 01:24:12;;;;;;;19.20;15.65;;;7.80;99.90;;;;;;4855257;29;20053;-83
2022/11/15 01:26:37;;;;;;;21.05;17.60;;;7.70;99.90;;;;;;4850756;29;20056;-84
2022/11/15 01:29:03;;;;;;;24.83;18.92;;;8.10;99.90;;;;;;4852038;29;20044;-84
2022/11/15 01:31:28;;;;;;;23.95;17.08;;;7.70;99.90;;;;;;4865084;29;20038;-84
2022/11/15 01:33:54;;;;;;;20.90;17.70;;;7.70;99.90;;;;;;4868707;29;20052;-84
2022/11/15 01:36:22;;;;;;;24.65;18.90;;;7.80;99.90;;;;;;4852612;29;20052;-83
2022/11/15 01:38:52;;;;;;;25.58;19.42;;;7.70;99.90;;;;;;4872009;29;20537;-83
2022/11/15 01:41:21;;;;;;;23.65;17.52;;;7.70;99.90;;;;;;4865559;29;20925;-84
2022/11/15 01:43:49;;;;;;;25.45;18.05;;;7.70;99.90;;;;;;4852450;29;20040;-83
2022/11/15 01:46:35;;;;;;;26.58;19.02;;;7.70;99.90;;;;;;4851512;29;20052;-84
2022/11/15 01:49:11;;;;;;;28.92;19.63;;;7.70;99.90;;;;;;4853605;29;20044;-83
2022/11/15 01:51:37;;;;;;;26.88;19.08;;;7.70;99.90;;;;;;4855987;29;20042;-83
2022/11/15 01:54:07;;;;;;;28.52;19.85;;;7.70;99.90;;;;;;4856336;29;20060;-83
2022/11/15 01:56:39;;;;;;;28.25;19.60;;;8.20;99.90;;;;;;4870240;29;20116;-83
2022/11/15 01:59:07;;;;;;;27.33;20.15;;;7.70;99.90;;;;;;4876014;29;20045;-83
2022/11/15 02:01:33;;;;;;;24.52;18.88;;;7.70;99.90;;;;;;4868124;29;20044;-83
2022/11/15 02:04:08;;;;;;;24.60;19.23;;;7.70;99.90;;;;;;4866709;29;20172;-83
2022/11/15 02:06:35;;;;;;;27.33;19.85;;;7.70;99.90;;;;;;4871643;29;20056;-83
2022/11/15 02:09:01;;;;;;;23.40;18.38;;;7.70;99.90;;;;;;4869680;29;20036;-83
2022/11/15 02:11:28;;;;;;;28.15;20.30;;;7.70;99.90;;;;;;4854469;29;20050;-83
2022/11/15 02:13:55;;;;;;;30.92;20.17;;;7.70;99.90;;;;;;4848392;29;20381;-83
2022/11/15 02:16:53;;;;;;;28.10;20.00;;;7.80;99.90;;;;;;4869532;29;20048;-83
2022/11/15 02:19:55;;;;;;;28.58;18.73;;;7.80;99.90;;;;;;4856954;29;20493;-83
2022/11/15 02:22:54;;;;;;;24.35;19.45;;;7.70;99.90;;;;;;4874843;29;20060;-83
2022/11/15 02:25:44;;;;;;;26.63;19.17;;;7.80;99.90;;;;;;4883587;29;20078;-83
2022/11/15 02:28:45;;;;;;;23.83;18.38;;;7.80;99.90;;;;;;4866621;29;20554;-83
2022/11/15 02:31:15;;;;;;;25.85;18.02;;;7.80;99.90;;;;;;4865324;29;20770;-83
2022/11/15 02:34:08;;;;;;;26.90;18.20;;;7.80;99.90;;;;;;4856402;29;20516;-83
2022/11/15 02:36:51;;;;;;;26.70;18.30;;;7.80;99.90;;;;;;4857649;29;20045;-83
2022/11/15 02:39:49;;;;;;;25.33;18.92;;;7.80;99.90;;;;;;4882402;29;20045;-83
2022/11/15 02:45:21;;;;;;;28.05;19.35;;;7.80;99.90;;;;;;4869186;29;20060;-83
2022/11/15 02:47:51;;;;;;;25.65;17.80;;;7.90;99.90;;;;;;4851586;29;20045;-82
2022/11/15 02:50:24;;;;;;;28.67;19.17;;;7.90;99.90;;;;;;4850682;29;20041;-81
2022/11/15 02:52:50;;;;;;;27.92;18.85;;;7.90;99.90;;;;;;4851274;29;20041;-82
2022/11/15 02:55:38;;;;;;;28.27;18.92;;;8.00;99.90;;;;;;4855775;29;20161;-82
2022/11/15 02:58:22;;;;;;;30.05;19.40;;;8.00;99.90;;;;;;4871158;29;20046;-82
2022/11/15 03:01:07;;;;;;;31.38;19.50;;;8.00;99.90;;;;;;4855502;29;20049;-81
2022/11/15 03:03:54;;;;;;;26.90;18.17;;;8.00;99.90;;;;;;4869739;29;20046;-81
2022/11/15 03:06:58;;;;;;;32.40;19.73;;;8.00;99.90;;;;;;4875923;29;20045;-81
2022/11/15 03:09:51;;;;;;;30.83;19.60;;;8.00;99.90;;;;;;4881459;29;20480;-81
2022/11/15 03:12:48;;;;;;;34.42;21.73;;;8.00;99.90;;;;;;4859060;29;20052;-81
2022/11/15 03:15:37;;;;;;;32.42;19.92;;;9.10;99.90;;;;;;4875669;29;20051;-81
2022/11/15 03:18:29;;;;;;;34.38;20.52;;;8.00;99.90;;;;;;4871380;29;20037;-81
2022/11/15 03:20:57;;;;;;;29.95;20.35;;;8.10;99.90;;;;;;4870328;29;20068;-81
2022/11/15 03:23:24;;;;;;;33.05;20.40;;;8.10;99.90;;;;;;4854732;29;20045;-81
2022/11/15 03:25:52;;;;;;;36.38;21.90;;;8.10;99.90;;;;;;4858752;29;20594;-81
2022/11/15 03:28:28;;;;;;;41.90;22.80;;;8.20;99.90;;;;;;4886293;29;20052;-81
2022/11/15 03:30:54;;;;;;;;;;;8.10;99.90;;;;;;4888503;29;20563;-81
2022/11/15 03:33:21;;;;;;;32.78;20.75;;;8.20;99.90;;;;;;4856474;29;19927;-82
2022/11/15 03:35:48;;;;;;;35.92;21.17;;;8.20;99.90;;;;;;4876835;29;20073;-81
2022/11/15 03:38:26;;;;;;;39.15;22.48;;;8.10;99.90;;;;;;4863396;29;20051;-82
2022/11/15 03:41:19;;;;;;;40.33;23.05;;;8.20;99.90;;;;;;4869723;29;20449;-80
2022/11/15 03:43:51;;;;;;;39.80;22.92;;;8.20;99.90;;;;;;4864185;29;20150;-84
2022/11/15 03:46:32;;;;;;;41.92;22.95;;;8.20;99.90;;;;;;4852116;29;20093;-84
2022/11/15 03:49:13;;;;;;;44.10;23.73;;;8.20;99.90;;;;;;4873752;29;20120;-84
2022/11/15 03:51:39;;;;;;;38.97;23.80;;;8.70;99.90;;;;;;4855165;29;20132;-84
2022/11/15 03:54:05;;;;;;;40.15;23.70;;;8.90;99.90;;;;;;4870702;29;20057;-84
2022/11/15 03:56:50;;;;;;;52.30;25.58;;;8.30;99.90;;;;;;4856301;29;20055;-84
2022/11/15 03:59:16;;;;;;;41.08;24.05;;;8.30;99.90;;;;;;4866815;29;20061;-83
2022/11/15 04:01:42;;;;;;;44.90;25.45;;;8.30;99.90;;;;;;4854449;29;20155;-84
2022/11/15 04:04:07;;;;;;;40.85;24.60;;;8.30;99.90;;;;;;4865640;29;20150;-84
2022/11/15 04:06:33;;;;;;;48.90;26.67;;;8.40;99.90;;;;;;4873747;29;20044;-84
2022/11/15 04:09:04;;;;;;;48.55;27.55;;;8.40;99.90;;;;;;4856171;29;20135;-86
2022/11/15 04:11:33;;;;;;;50.38;28.65;;;8.40;99.90;;;;;;4870418;29;20044;-84
2022/11/15 04:13:58;;;;;;;53.50;28.42;;;8.40;99.90;;;;;;4858869;29;20049;-83
2022/11/15 04:16:27;;;;;;;59.88;30.35;;;8.50;99.90;;;;;;4868359;29;20044;-84
2022/11/15 04:24:21;;;;;;;57.55;31.30;;;8.60;99.90;;;;;;4871561;29;20552;-84
2022/11/15 04:26:47;;;;;;;71.47;34.35;;;8.60;99.90;;;;;;4857199;29;20037;-84
2022/11/15 04:31:56;;;;;;;66.15;32.22;;;8.60;99.90;;;;;;4869260;29;20159;-84
2022/11/15 04:34:22;;;;;;;68.75;33.80;;;8.70;99.90;;;;;;4850644;29;20128;-83
2022/11/15 04:37:30;;;;;;;76.32;33.15;;;8.70;99.90;;;;;;4848409;29;20056;-83
2022/11/15 04:39:36;;;;;;;69.78;34.90;;;8.70;99.90;;;;;;4867200;29;20056;-85
2022/11/15 04:42:05;;;;;;;78.35;36.30;;;8.70;99.90;;;;;;4858468;29;20041;-85
2022/11/15 04:44:31;;;;;;;71.30;34.90;;;8.80;99.90;;;;;;4855052;29;20135;-84
2022/11/15 04:46:56;;;;;;;73.47;35.03;;;8.80;99.90;;;;;;4855799;29;20124;-84
2022/11/15 04:49:22;;;;;;;78.75;35.75;;;8.80;99.90;;;;;;4851683;29;20048;-83
2022/11/15 04:51:48;;;;;;;85.25;36.97;;;8.80;99.90;;;;;;4866012;29;20045;-85
2022/11/15 04:54:13;;;;;;;77.15;36.03;;;8.90;99.90;;;;;;4853208;29;20497;-84
2022/11/15 04:56:45;;;;;;;78.43;37.88;;;8.90;99.90;;;;;;4853242;29;20042;-86
2022/11/15 04:59:28;;;;;;;72.45;35.50;;;8.90;99.90;;;;;;4870707;29;20088;-85
2022/11/15 05:02:10;;;;;;;78.03;36.80;;;9.00;99.90;;;;;;4864592;29;20076;-88
2022/11/15 05:04:35;;;;;;;69.38;34.28;;;8.90;99.90;;;;;;4848411;29;20073;-86
2022/11/15 05:07:05;;;;;;;91.15;39.47;;;9.00;99.90;;;;;;4867579;29;20065;-87
2022/11/15 05:10:02;;;;;;;86.15;40.13;;;9.00;99.90;;;;;;4841755;29;20048;-87
2022/11/15 05:12:48;;;;;;;85.45;38.78;;;9.10;99.90;;;;;;4868445;29;20112;-88
2022/11/15 05:15:17;;;;;;;85.18;40.83;;;9.10;99.90;;;;;;4869599;29;20445;-87
2022/11/15 05:17:43;;;;;;;67.43;35.90;;;9.10;99.90;;;;;;4865893;29;20504;-84
2022/11/15 05:20:28;;;;;;;87.05;38.22;;;9.10;99.90;;;;;;4866882;29;20051;-87
2022/11/15 05:31:37;;;;;;;76.82;39.20;;;9.20;99.90;;;;;;4901099;29;20079;-86
2022/11/15 05:34:04;;;;;;;73.43;37.58;;;9.30;99.90;;;;;;4861809;29;20044;-83
2022/11/15 05:36:42;;;;;;;62.40;37.00;;;9.40;99.90;;;;;;4870031;29;20380;-84
2022/11/15 05:39:09;;;;;;;69.45;36.92;;;9.40;99.90;;;;;;4846198;29;20940;-84
2022/11/15 05:41:59;;;;;;;65.28;35.78;;;9.40;99.90;;;;;;4853551;29;20045;-86
2022/11/15 05:45:01;;;;;;;63.47;35.67;;;9.50;99.90;;;;;;4865961;29;20516;-87
2022/11/15 05:47:30;;;;;;;64.05;36.92;;;9.50;99.90;;;;;;4865394;29;20770;-87
2022/11/15 05:49:57;;;;;;;58.83;34.38;;;10.10;99.90;;;;;;4849205;29;20037;-86
2022/11/15 05:52:35;;;;;;;56.53;35.40;;;9.70;99.90;;;;;;4850524;29;20144;-86
2022/11/15 05:55:02;;;;;;;55.05;33.88;;;9.60;99.90;;;;;;4854109;29;20040;-85
2022/11/15 05:57:31;;;;;;;66.55;37.17;;;9.60;99.90;;;;;;4869987;29;20112;-83
2022/11/15 05:59:57;;;;;;;57.83;35.15;;;9.70;99.90;;;;;;4851247;29;20183;-85
2022/11/15 06:02:32;;;;;;;59.35;34.83;;;9.80;99.90;;;;;;4868587;29;20095;-86
2022/11/15 06:04:58;;;;;;;66.55;36.42;;;9.70;99.90;;;;;;4856208;29;20045;-86
2022/11/15 06:07:28;;;;;;;61.03;35.47;;;9.80;99.90;;;;;;4849325;29;20557;-87
2022/11/15 06:10:12;;;;;;;60.75;35.22;;;9.70;99.90;;;;;;4869786;29;20036;-86
2022/11/15 06:12:38;;;;;;;63.50;34.40;;;9.80;99.90;;;;;;4873613;29;20053;-87
2022/11/15 06:15:04;;;;;;;64.40;35.97;;;9.80;99.90;;;;;;4866935;29;20053;-85
2022/11/15 06:17:29;;;;;;;59.63;33.70;;;9.90;99.90;;;;;;4851647;29;20066;-85
2022/11/15 06:19:55;;;;;;;63.50;34.47;;;9.90;99.90;;;;;;4879313;29;20339;-86
2022/11/15 06:22:20;;;;;;;57.45;33.80;;;9.90;99.90;;;;;;4865413;29;20055;-84
2022/11/15 06:24:47;;;;;;;60.00;32.67;;;10.00;99.90;;;;;;4849454;29;20053;-85
2022/11/15 06:27:13;;;;;;;56.58;33.03;;;10.00;99.90;;;;;;4862708;29;20041;-85
2022/11/15 06:29:39;;;;;;;55.92;31.10;;;10.00;99.90;;;;;;4851791;29;20041;-86
2022/11/15 06:32:06;;;;;;;55.15;32.38;;;10.00;99.90;;;;;;4869100;29;20120;-86
2022/11/15 06:34:41;;;;;;;66.63;33.15;;;10.00;99.90;;;;;;4847718;29;20080;-86
2022/11/15 06:37:37;;;;;;;55.50;33.05;;;10.10;99.90;;;;;;4860997;29;20049;-88
2022/11/15 06:41:16;;;;;;;55.85;33.38;;;10.10;99.90;;;;;;4900704;29;20088;-88
2022/11/15 06:43:44;;;;;;;51.08;31.45;;;10.10;99.90;;;;;;4875564;29;20048;-87
2022/11/15 06:46:11;;;;;;;53.70;31.90;;;10.20;99.90;;;;;;4874428;29;20071;-88
2022/11/15 06:52:32;;;;;;;52.63;30.92;;;10.20;99.90;;;;;;4876529;29;20051;-86
2022/11/15 06:54:58;;;;;;;51.60;30.20;;;10.20;99.90;;;;;;4855266;29;21440;-85
2022/11/15 06:57:24;;;;;;;50.03;30.60;;;10.20;99.90;;;;;;4862320;29;20049;-85
2022/11/15 06:59:50;;;;;;;50.72;30.10;;;10.20;99.90;;;;;;4851647;29;20057;-85
2022/11/15 07:02:15;;;;;;;49.10;30.75;;;10.20;99.90;;;;;;4852794;29;20518;-83
2022/11/15 07:04:41;;;;;;;46.30;29.35;;;10.30;99.90;;;;;;4866999;29;20092;-84
2022/11/15 07:07:06;;;;;;;51.00;29.55;;;10.30;99.90;;;;;;4853825;29;20124;-84
2022/11/15 07:09:32;;;;;;;46.65;29.30;;;10.30;99.90;;;;;;4888178;29;20037;-84
2022/11/15 07:11:57;;;;;;;47.13;31.40;;;10.40;99.90;;;;;;4859619;29;20080;-83
2022/11/15 07:14:23;;;;;;;46.33;29.90;;;10.40;99.90;;;;;;4852055;29;20042;-84
2022/11/15 07:16:48;;;;;;;51.53;29.05;;;10.30;99.90;;;;;;4855464;29;20041;-84
2022/11/15 07:19:14;;;;;;;44.15;28.35;;;10.90;99.90;;;;;;4852729;29;20056;-84
2022/11/15 07:21:42;;;;;;;44.08;28.67;;;10.40;99.90;;;;;;4871201;29;20401;-85
2022/11/15 07:24:08;;;;;;;43.55;28.02;;;10.40;99.90;;;;;;4867250;29;20045;-86
2022/11/15 07:26:33;;;;;;;42.92;27.95;;;10.40;99.90;;;;;;4859658;29;20101;-85
2022/11/15 07:28:59;;;;;;;42.97;26.85;;;10.40;99.90;;;;;;4873169;29;20057;-86
2022/11/15 07:31:25;;;;;;;43.30;25.92;;;10.50;99.90;;;;;;4871973;29;20045;-86
2022/11/15 07:33:54;;;;;;;33.88;25.02;;;10.50;99.90;;;;;;4856666;29;20182;-84
2022/11/15 07:36:20;;;;;;;40.00;25.40;;;10.50;99.90;;;;;;4858778;29;20135;-86
2022/11/15 07:38:45;;;;;;;38.00;25.88;;;10.50;99.90;;;;;;4854993;29;20128;-86
2022/11/15 07:41:11;;;;;;;37.80;25.90;;;10.50;99.90;;;;;;4858082;29;20065;-85
2022/11/15 07:43:36;;;;;;;35.88;25.45;;;10.60;99.90;;;;;;4870895;29;20045;-84
2022/11/15 07:46:08;;;;;;;34.17;24.70;;;10.60;99.90;;;;;;4855335;29;20049;-86
2022/11/15 07:48:36;;;;;;;32.25;25.17;;;10.70;99.90;;;;;;4856726;29;20116;-86
2022/11/15 07:51:02;;;;;;;33.17;24.25;;;10.60;99.90;;;;;;4851069;29;20025;-86
2022/11/15 07:53:28;;;;;;;33.38;23.75;;;10.70;99.90;;;;;;4859558;29;20077;-86
2022/11/15 07:55:53;;;;;;;31.15;23.73;;;10.70;99.90;;;;;;4867565;29;20072;-86
2022/11/15 07:58:19;;;;;;;27.98;22.40;;;10.70;99.90;;;;;;4854110;29;20049;-86
2022/11/15 08:00:47;;;;;;;32.53;22.77;;;10.70;99.90;;;;;;4868992;29;20509;-86
2022/11/15 08:03:15;;;;;;;34.60;23.10;;;10.80;99.90;;;;;;4858116;29;20049;-86
2022/11/15 08:05:41;;;;;;;31.30;23.70;;;10.70;99.90;;;;;;4869869;29;20065;-85
2022/11/15 08:08:09;;;;;;;30.35;23.23;;;10.70;99.90;;;;;;4868417;29;20041;-86
2022/11/15 08:10:35;;;;;;;32.42;23.70;;;10.80;99.90;;;;;;4859930;29;20048;-85
2022/11/15 08:13:07;;;;;;;31.55;22.85;;;10.80;99.90;;;;;;4873486;29;20052;-86
2022/11/15 08:15:34;;;;;;;31.60;22.23;;;10.90;99.90;;;;;;4852404;29;20093;-86
2022/11/15 08:18:02;;;;;;;40.33;22.10;;;10.90;99.90;;;;;;4867347;29;20396;-86
2022/11/15 08:20:29;;;;;;;30.80;20.98;;;10.90;99.90;;;;;;4871042;29;20050;-85
2022/11/15 08:23:20;;;;;;;27.70;21.73;;;10.90;99.90;;;;;;4857713;29;20086;-86
2022/11/15 08:25:49;;;;;;;25.15;21.65;;;10.90;99.90;;;;;;4856102;29;20101;-86
2022/11/15 08:28:23;;;;;;;28.92;21.95;;;10.90;99.90;;;;;;4851986;29;20449;-85
2022/11/15 08:30:50;;;;;;;29.10;21.20;;;11.00;99.90;;;;;;4867078;29;20034;-86
2022/11/15 08:33:15;;;;;;;27.48;20.58;;;11.00;99.90;;;;;;4868178;29;20461;-86
2022/11/15 08:35:42;;;;;;;22.00;19.60;;;11.10;99.90;;;;;;4853237;29;20042;-86
2022/11/15 08:38:08;;;;;;;27.52;19.00;;;11.10;99.90;;;;;;4854323;29;20479;-84
2022/11/15 08:40:42;;;;;;;25.75;19.08;;;11.40;99.90;;;;;;4856538;29;20132;-86
2022/11/15 08:43:08;;;;;;;25.27;19.67;;;11.30;99.90;;;;;;4868555;29;20045;-86
2022/11/15 08:45:34;;;;;;;26.80;19.90;;;11.20;99.90;;;;;;4856552;29;20053;-85
2022/11/15 08:48:02;;;;;;;30.20;19.45;;;11.20;99.90;;;;;;4859062;29;20561;-85
2022/11/15 08:50:37;;;;;;;25.25;19.80;;;11.20;99.90;;;;;;4855828;29;20058;-86
2022/11/15 08:53:12;;;;;;;20.90;18.52;;;11.40;99.90;;;;;;4852120;29;20139;-86
2022/11/15 08:55:40;;;;;;;24.85;17.70;;;11.30;99.90;;;;;;4865006;29;20127;-86
2022/11/15 08:58:11;;;;;;;23.20;19.17;;;11.30;99.90;;;;;;4867715;29;20037;-86
2022/11/15 09:00:37;;;;;;;23.58;18.80;;;11.30;99.90;;;;;;4864531;29;20053;-86
2022/11/15 09:03:07;;;;;;;21.85;19.27;;;11.40;99.90;;;;;;4857138;29;20046;-86
2022/11/15 09:05:35;;;;;;;26.75;19.38;;;11.40;99.90;;;;;;4857163;29;20045;-85
2022/11/15 09:08:00;;;;;;;25.95;19.15;;;11.40;99.90;;;;;;4857923;29;20033;-86
2022/11/15 09:10:26;;;;;;;22.75;19.17;;;11.50;99.90;;;;;;4855596;29;20051;-86
2022/11/15 09:12:58;;;;;;;20.90;17.75;;;11.50;99.90;;;;;;4873731;29;20718;-85
2022/11/15 09:15:24;;;;;;;21.60;17.48;;;11.50;99.90;;;;;;4884084;29;20046;-86
2022/11/15 09:17:49;;;;;;;22.10;18.35;;;11.50;99.90;;;;;;4869546;29;20177;-86
2022/11/15 09:20:15;;;;;;;20.60;18.38;;;11.50;99.90;;;;;;4866665;29;20057;-87
2022/11/15 09:22:41;;;;;;;22.85;17.95;;;11.50;99.90;;;;;;4855896;29;20044;-85
2022/11/15 09:25:08;;;;;;;22.83;18.13;;;11.60;99.90;;;;;;4859039;29;20037;-85
2022/11/15 09:27:46;;;;;;;21.15;18.77;;;11.60;99.90;;;;;;4854983;29;20131;-86
2022/11/15 09:30:11;;;;;;;22.80;17.83;;;11.70;99.90;;;;;;4856834;29;20048;-86
2022/11/15 09:32:37;;;;;;;23.08;17.77;;;11.60;99.90;;;;;;4865319;29;20033;-86
2022/11/15 09:35:04;;;;;;;20.35;16.00;;;11.60;99.90;;;;;;4857667;29;20087;-86
2022/11/15 09:37:39;;;;;;;23.10;17.25;;;11.70;99.90;;;;;;4883329;29;20053;-86
2022/11/15 09:40:07;;;;;;;20.15;16.88;;;11.70;99.90;;;;;;4869026;29;20650;-86
2022/11/15 09:42:45;;;;;;;20.67;16.38;;;11.80;99.90;;;;;;4857312;29;20080;-86
2022/11/15 09:45:15;;;;;;;17.10;14.15;;;11.80;99.90;;;;;;4871665;29;20492;-86
2022/11/15 09:48:26;;;;;;;19.25;16.35;;;11.80;99.90;;;;;;4866793;29;20057;-86
2022/11/15 09:50:58;;;;;;;19.08;16.10;;;11.90;99.90;;;;;;4869985;29;20044;-85
2022/11/15 09:53:29;;;;;;;19.35;14.63;;;11.90;99.90;;;;;;4870745;29;20033;-86
2022/11/15 09:56:02;;;;;;;20.50;16.02;;;11.90;99.90;;;;;;4886386;29;20066;-86
2022/11/15 09:58:59;;;;;;;18.25;13.98;;;11.90;99.90;;;;;;4871143;29;20938;-87
2022/11/15 10:02:18;;;;;;;17.13;14.32;;;11.90;99.90;;;;;;4871192;29;20056;-88
2022/11/15 10:04:47;;;;;;;21.77;16.08;;;11.90;99.90;;;;;;4805349;29;20053;-87
2022/11/15 10:08:07;;;;;;;18.20;14.75;;;11.90;99.90;;;;;;4844192;29;20547;-87
2022/11/15 10:10:41;;;;;;;16.02;14.38;;;12.00;99.90;;;;;;4890890;29;20076;-87
2022/11/15 10:14:00;;;;;;;17.02;15.07;;;12.00;99.90;;;;;;4892174;29;20035;-87
2022/11/15 10:16:59;;;;;;;19.75;14.90;;;12.10;99.90;;;;;;4858518;29;20059;-87
2022/11/15 10:19:49;;;;;;;16.83;13.98;;;12.00;99.90;;;;;;4873743;29;20082;-87
2022/11/15 10:22:47;;;;;;;17.13;14.07;;;12.10;99.90;;;;;;4873697;29;20076;-87
2022/11/15 10:25:38;;;;;;;16.77;14.82;;;12.10;99.90;;;;;;4872008;29;20050;-87
2022/11/15 10:28:05;;;;;;;18.65;13.25;;;12.20;99.90;;;;;;4862237;29;20077;-87
2022/11/15 10:30:57;;;;;;;15.18;11.90;;;12.20;99.90;;;;;;4868082;29;20053;-87
2022/11/15 10:33:29;;;;;;;11.95;10.52;;;12.30;99.90;;;;;;4852017;29;20045;-87
2022/11/15 10:36:13;;;;;;;13.15;11.88;;;12.20;99.90;;;;;;4852726;29;20045;-86
2022/11/15 10:38:47;;;;;;;12.32;11.05;;;12.30;99.90;;;;;;4852772;29;20051;-87
2022/11/15 10:41:30;;;;;;;12.60;9.70;;;12.30;99.90;;;;;;4859928;29;20045;-87
2022/11/15 10:44:31;;;;;;;12.98;9.18;;;12.30;99.90;;;;;;4857256;29;20377;-87
2022/11/15 10:47:02;;;;;;;11.02;9.52;;;12.30;99.90;;;;;;4860712;29;20045;-87
2022/11/15 10:50:18;;;;;;;10.93;9.25;;;12.30;99.90;;;;;;4860107;29;20044;-87
2022/11/15 10:52:46;;;;;;;10.57;8.50;;;12.40;99.90;;;;;;4858834;29;20453;-87
2022/11/15 10:55:12;;;;;;;12.68;7.40;;;12.50;99.90;;;;;;4859612;29;20040;-87
2022/11/15 10:58:05;;;;;;;8.45;6.80;;;12.70;99.90;;;;;;4861068;29;20076;-87
2022/11/15 11:00:53;;;;;;;5.72;4.97;;;12.80;99.90;;;;;;4870832;29;20049;-87
2022/11/15 11:03:44;;;;;;;8.05;4.90;;;13.00;99.90;;;;;;4858461;29;20145;-87
2022/11/15 11:06:17;;;;;;;4.05;3.00;;;13.10;99.90;;;;;;4866707;29;20061;-87
2022/11/15 11:09:04;;;;;;;6.32;4.32;;;13.30;99.90;;;;;;4842637;29;20109;-87
2022/11/15 11:12:03;;;;;;;5.60;2.42;;;13.60;99.90;;;;;;4884202;29;20042;-87
2022/11/15 11:14:33;;;;;;;4.82;1.73;;;13.70;99.90;;;;;;4870176;29;20053;-87
2022/11/15 11:17:49;;;;;;;6.40;2.45;;;13.90;99.90;;;;;;4860884;29;20043;-87
2022/11/15 11:21:19;;;;;;;3.95;1.90;;;13.80;99.90;;;;;;4854033;29;20194;-87
2022/11/15 11:24:18;;;;;;;3.92;2.00;;;13.80;99.90;;;;;;4873649;29;20060;-87
2022/11/15 11:26:49;;;;;;;3.45;2.10;;;13.70;99.90;;;;;;4862084;29;20048;-87
2022/11/15 11:29:41;;;;;;;5.82;2.30;;;13.60;99.90;;;;;;4859099;29;20331;-87
2022/11/15 11:32:45;;;;;;;5.47;2.13;;;13.40;99.90;;;;;;4857706;29;20080;-87
2022/11/15 11:35:57;;;;;;;7.05;3.17;;;13.20;99.90;;;;;;4870554;29;20121;-87
2022/11/15 11:38:57;;;;;;;4.65;2.05;;;13.10;99.90;;;;;;4852678;29;20056;-87
2022/11/15 11:41:54;;;;;;;4.35;1.98;;;13.10;99.90;;;;;;4869345;29;20045;-88
2022/11/15 11:45:20;;;;;;;7.25;1.50;;;13.10;99.90;;;;;;4868687;29;20543;-88
2022/11/15 11:48:18;;;;;;;5.97;1.75;;;13.10;99.90;;;;;;4859062;29;20055;-87
2022/11/15 11:50:45;;;;;;;3.55;1.35;;;12.90;99.90;;;;;;4868602;29;20041;-87
2022/11/15 11:53:42;;;;;;;5.35;1.65;;;12.80;99.90;;;;;;4853991;29;20048;-86
2022/11/15 11:56:38;;;;;;;6.20;1.80;;;12.80;99.90;;;;;;4859962;29;20048;-87
2022/11/15 12:00:00;;;;;;;5.27;1.47;;;12.70;99.90;;;;;;4867468;29;20053;-87
2022/11/15 12:02:56;;;;;;;5.45;1.58;;;12.70;99.90;;;;;;4907832;29;20053;-87
2022/11/15 12:06:00;;;;;;;4.57;2.10;;;12.70;99.90;;;;;;4867763;29;20052;-87
2022/11/15 12:08:56;;;;;;;3.72;1.75;;;12.70;99.90;;;;;;4861423;29;20041;-88
2022/11/15 12:12:02;;;;;;;5.30;2.10;;;12.70;99.90;;;;;;4856043;29;20054;-87
2022/11/15 12:14:47;;;;;;;7.57;1.92;;;12.80;99.90;;;;;;4860080;29;20500;-87
2022/11/15 12:17:14;;;;;;;4.82;2.13;;;12.90;99.90;;;;;;4885592;29;20097;-87
2022/11/15 12:19:42;;;;;;;6.28;2.70;;;12.90;99.90;;;;;;4863978;29;20610;-87
2022/11/15 12:22:36;;;;;;;6.70;2.22;;;13.00;99.90;;;;;;4870853;29;20048;-87
2022/11/15 12:25:46;;;;;;;5.97;2.25;;;13.10;99.90;;;;;;4883507;29;20120;-87
2022/11/15 12:28:53;;;;;;;4.95;2.67;;;13.10;99.90;;;;;;4873137;29;20046;-87
2022/11/15 12:31:44;;;;;;;8.30;2.78;;;13.40;99.90;;;;;;4857259;29;20092;-87
2022/11/15 12:34:36;;;;;;;7.20;2.50;;;13.10;99.90;;;;;;4881429;29;20036;-86
2022/11/15 12:37:02;;;;;;;5.82;2.25;;;13.10;99.90;;;;;;4877160;29;20045;-87
2022/11/15 12:40:13;;;;;;;7.40;2.75;;;13.40;99.90;;;;;;4858512;29;20152;-87
2022/11/15 12:42:58;;;;;;;3.47;1.73;;;13.20;99.90;;;;;;4907443;29;20092;-87
2022/11/15 12:45:48;;;;;;;6.50;2.38;;;13.20;99.90;;;;;;4893433;29;20048;-87
2022/11/15 12:48:17;;;;;;;7.15;3.00;;;13.30;99.90;;;;;;4851311;29;20077;-87
2022/11/15 12:51:13;;;;;;;7.22;3.20;;;13.20;99.90;;;;;;4858798;29;20033;-87
2022/11/15 12:53:38;;;;;;;4.82;2.40;;;13.20;99.90;;;;;;4870269;29;20113;-86
2022/11/15 12:56:16;;;;;;;7.13;2.25;;;13.20;99.90;;;;;;4868139;29;20049;-87
2022/11/15 12:59:14;;;;;;;4.25;1.88;;;13.20;99.90;;;;;;4869669;29;20115;-87
2022/11/15 13:01:40;;;;;;;4.15;1.52;;;13.30;99.90;;;;;;4851050;29;21477;-87
2022/11/15 13:04:26;;;;;;;4.90;2.03;;;13.20;99.90;;;;;;4868575;29;20045;-87
2022/11/15 13:06:58;;;;;;;4.38;2.10;;;13.20;99.90;;;;;;4870735;29;20041;-87
2022/11/15 13:09:35;;;;;;;4.22;1.75;;;13.20;99.90;;;;;;4865751;29;20044;-87
2022/11/15 13:12:03;;;;;;;2.85;1.13;;;13.10;99.90;;;;;;4868314;29;20053;-88
2022/11/15 13:14:44;;;;;;;6.28;1.42;;;13.80;99.90;;;;;;4867963;29;20048;-87
2022/11/15 13:17:17;;;;;;;2.63;1.00;;;13.10;99.90;;;;;;4869035;29;20049;-87
2022/11/15 13:19:45;;;;;;;4.80;1.20;;;13.80;99.90;;;;;;4864836;29;20045;-87
2022/11/15 13:24:56;;;;;;;1.42;0.90;;;12.90;99.90;;;;;;4872442;29;20041;-87
2022/11/15 13:27:23;;;;;;;4.97;0.93;;;12.80;99.90;;;;;;4851639;29;20543;-87
2022/11/15 13:29:48;;;;;;;6.50;1.30;;;12.80;99.90;;;;;;4871431;29;20059;-87
2022/11/15 13:32:16;;;;;;;4.70;1.08;;;12.80;99.90;;;;;;4869938;29;20063;-87
2022/11/15 13:34:52;;;;;;;3.72;1.02;;;12.70;99.90;;;;;;4865466;29;20044;-87
2022/11/15 13:37:21;;;;;;;1.10;0.63;;;12.90;99.90;;;;;;4855360;29;20127;-87
2022/11/15 13:39:48;;;;;;;2.80;1.02;;;12.70;99.90;;;;;;4872760;29;20045;-87
2022/11/15 13:42:21;;;;;;;3.65;0.90;;;12.60;99.90;;;;;;4869678;29;20120;-87
2022/11/15 13:44:58;;;;;;;1.70;0.98;;;12.70;99.90;;;;;;4865912;29;20049;-87